sensor_id;sensor_type;location;lat;lon;timestamp;pressure;altitude;pressure_sealevel;temperature;humidity
68994;BME280;56054;50.968;5.816;2023-02-16T00:02:11;101678.38;;;6.84;94.86
68994;BME280;56054;50.968;5.816;2023-02-16T00:08:39;101677.03;;;6.79;94.88
68994;BME280;56054;50.968;5.816;2023-02-16T00:11:46;101685.41;;;6.77;95.22
68994;BME280;56054;50.968;5.816;2023-02-16T00:15:18;101676.34;;;6.72;94.73
68994;BME280;56054;50.968;5.816;2023-02-16T00:18:30;101668.75;;;6.73;95.32
68994;BME280;56054;50.968;5.816;2023-02-16T00:25:29;101673.78;;;6.63;94.64
68994;BME280;56054;50.968;5.816;2023-02-16T00:28:41;101677.16;;;6.62;95.26
68994;BME280;56054;50.968;5.816;2023-02-16T00:32:00;101673.50;;;6.60;95.03
68994;BME280;56054;50.968;5.816;2023-02-16T00:39:26;101658.91;;;6.60;94.65
68994;BME280;56054;50.968;5.816;2023-02-16T00:42:41;101656.94;;;6.58;94.39
68994;BME280;56054;50.968;5.816;2023-02-16T00:46:35;101650.59;;;6.54;94.35
68994;BME280;56054;50.968;5.816;2023-02-16T00:49:57;101656.94;;;6.58;93.85
68994;BME280;56054;50.968;5.816;2023-02-16T00:53:11;101646.06;;;6.52;94.15
68994;BME280;56054;50.968;5.816;2023-02-16T01:04:30;101637.59;;;6.44;94.15
68994;BME280;56054;50.968;5.816;2023-02-16T01:07:44;101647.59;;;6.50;93.83
68994;BME280;56054;50.968;5.816;2023-02-16T01:11:32;101647.94;;;6.44;93.46
68994;BME280;56054;50.968;5.816;2023-02-16T01:15:02;101645.19;;;6.42;93.55
68994;BME280;56054;50.968;5.816;2023-02-16T01:18:19;101644.00;;;6.39;93.32
68994;BME280;56054;50.968;5.816;2023-02-16T01:21:30;101639.13;;;6.42;93.25
68994;BME280;56054;50.968;5.816;2023-02-16T01:32:34;101644.47;;;6.35;93.73
68994;BME280;56054;50.968;5.816;2023-02-16T01:35:49;101638.53;;;6.36;93.93
68994;BME280;56054;50.968;5.816;2023-02-16T01:39:00;101647.34;;;6.38;93.59
68994;BME280;56054;50.968;5.816;2023-02-16T01:42:31;101643.66;;;6.45;93.81
68994;BME280;56054;50.968;5.816;2023-02-16T01:45:58;101627.41;;;6.46;93.14
68994;BME280;56054;50.968;5.816;2023-02-16T01:49:13;101631.50;;;6.43;93.48
68994;BME280;56054;50.968;5.816;2023-02-16T01:52:31;101626.06;;;6.40;93.92
68994;BME280;56054;50.968;5.816;2023-02-16T01:55:43;101624.53;;;6.42;94.18
68994;BME280;56054;50.968;5.816;2023-02-16T01:59:00;101623.47;;;6.40;93.97
68994;BME280;56054;50.968;5.816;2023-02-16T02:02:21;101634.72;;;6.41;94.12
68994;BME280;56054;50.968;5.816;2023-02-16T02:05:34;101615.75;;;6.40;94.09
68994;BME280;56054;50.968;5.816;2023-02-16T02:08:58;101625.00;;;6.38;95.29
68994;BME280;56054;50.968;5.816;2023-02-16T02:12:29;101620.34;;;6.34;95.03
68994;BME280;56054;50.968;5.816;2023-02-16T07:54:06;101554.88;;;7.28;97.54
68994;BME280;56054;50.968;5.816;2023-02-16T07:57:20;101562.41;;;7.36;97.10
68994;BME280;56054;50.968;5.816;2023-02-16T08:00:27;101563.19;;;7.35;99.24
68994;BME280;56054;50.968;5.816;2023-02-16T08:03:36;101550.78;;;7.41;99.61
68994;BME280;56054;50.968;5.816;2023-02-16T08:06:44;101564.13;;;7.45;99.72
68994;BME280;56054;50.968;5.816;2023-02-16T08:09:51;101552.91;;;7.45;99.43
68994;BME280;56054;50.968;5.816;2023-02-16T08:13:01;101557.84;;;7.52;98.99
68994;BME280;56054;50.968;5.816;2023-02-16T08:16:09;101561.34;;;7.63;98.92
68994;BME280;56054;50.968;5.816;2023-02-16T08:19:17;101553.38;;;7.70;98.28
68994;BME280;56054;50.968;5.816;2023-02-16T08:22:32;101557.25;;;7.75;97.89
68994;BME280;56054;50.968;5.816;2023-02-16T08:25:40;101545.25;;;7.76;97.77
68994;BME280;56054;50.968;5.816;2023-02-16T08:28:50;101561.94;;;7.79;98.11
68994;BME280;56054;50.968;5.816;2023-02-16T08:31:59;101550.03;;;7.81;97.84
68994;BME280;56054;50.968;5.816;2023-02-16T08:35:40;101553.53;;;7.82;97.76
68994;BME280;56054;50.968;5.816;2023-02-16T08:39:25;101557.97;;;7.83;97.79
68994;BME280;56054;50.968;5.816;2023-02-16T08:42:58;101555.47;;;7.84;98.27
68994;BME280;56054;50.968;5.816;2023-02-16T08:46:11;101551.19;;;7.85;98.37
68994;BME280;56054;50.968;5.816;2023-02-16T08:49:22;101556.13;;;7.82;98.00
68994;BME280;56054;50.968;5.816;2023-02-16T08:52:45;101564.94;;;7.84;97.51
68994;BME280;56054;50.968;5.816;2023-02-16T08:55:58;101561.84;;;7.88;97.69
68994;BME280;56054;50.968;5.816;2023-02-16T08:59:06;101560.56;;;7.93;97.71
68994;BME280;56054;50.968;5.816;2023-02-16T09:02:20;101560.19;;;7.99;96.97
68994;BME280;56054;50.968;5.816;2023-02-16T09:05:31;101568.59;;;8.06;97.35
68994;BME280;56054;50.968;5.816;2023-02-16T09:08:42;101574.03;;;8.09;97.45
68994;BME280;56054;50.968;5.816;2023-02-16T09:11:56;101576.13;;;8.13;96.94
68994;BME280;56054;50.968;5.816;2023-02-16T09:15:03;101578.84;;;8.15;97.40
68994;BME280;56054;50.968;5.816;2023-02-16T09:18:15;101593.09;;;8.20;97.45
68994;BME280;56054;50.968;5.816;2023-02-16T09:21:24;101585.97;;;8.28;97.67
68994;BME280;56054;50.968;5.816;2023-02-16T09:24:31;101586.00;;;8.38;96.82
68994;BME280;56054;50.968;5.816;2023-02-16T09:27:38;101595.22;;;8.45;96.35
68994;BME280;56054;50.968;5.816;2023-02-16T09:30:51;101599.75;;;8.47;96.91
68994;BME280;56054;50.968;5.816;2023-02-16T09:34:20;101597.31;;;8.49;96.65
68994;BME280;56054;50.968;5.816;2023-02-16T09:37:47;101609.09;;;8.55;96.32
68994;BME280;56054;50.968;5.816;2023-02-16T09:40:56;101613.38;;;8.55;96.94
68994;BME280;56054;50.968;5.816;2023-02-16T09:47:56;101611.03;;;8.58;96.61
68994;BME280;56054;50.968;5.816;2023-02-16T09:51:05;101609.47;;;8.60;96.27
68994;BME280;56054;50.968;5.816;2023-02-16T09:54:41;101618.16;;;8.61;96.42
68994;BME280;56054;50.968;5.816;2023-02-16T09:58:15;101628.66;;;8.62;95.92
68994;BME280;56054;50.968;5.816;2023-02-16T10:01:51;101641.75;;;8.64;96.51
68994;BME280;56054;50.968;5.816;2023-02-16T10:08:22;101621.03;;;8.64;96.13
68994;BME280;56054;50.968;5.816;2023-02-16T10:11:52;101619.97;;;8.62;97.49
68994;BME280;56054;50.968;5.816;2023-02-16T10:15:33;101621.53;;;8.60;100.00
68994;BME280;56054;50.968;5.816;2023-02-16T10:20:02;101614.56;;;8.59;100.00
68994;BME280;56054;50.968;5.816;2023-02-16T10:26:44;101605.47;;;8.53;100.00
68994;BME280;56054;50.968;5.816;2023-02-16T10:30:09;101591.75;;;8.54;100.00
68994;BME280;56054;50.968;5.816;2023-02-16T10:37:10;101591.22;;;8.69;100.00
68994;BME280;56054;50.968;5.816;2023-02-16T10:44:03;101596.91;;;8.75;99.24
68994;BME280;56054;50.968;5.816;2023-02-16T10:51:31;101616.34;;;8.80;98.03
68994;BME280;56054;50.968;5.816;2023-02-16T10:54:39;101607.91;;;8.83;98.05
68994;BME280;56054;50.968;5.816;2023-02-16T10:58:23;101601.97;;;8.84;96.65
68994;BME280;56054;50.968;5.816;2023-02-16T11:01:41;101597.03;;;8.87;97.06
68994;BME280;56054;50.968;5.816;2023-02-16T11:04:57;101600.25;;;8.94;97.28
68994;BME280;56054;50.968;5.816;2023-02-16T11:08:06;101601.03;;;9.04;96.29
68994;BME280;56054;50.968;5.816;2023-02-16T11:11:27;101593.78;;;9.10;96.08
68994;BME280;56054;50.968;5.816;2023-02-16T11:14:48;101607.22;;;9.16;95.48
68994;BME280;56054;50.968;5.816;2023-02-16T11:18:04;101605.91;;;9.21;95.46
68994;BME280;56054;50.968;5.816;2023-02-16T11:21:18;101600.50;;;9.18;95.23
68994;BME280;56054;50.968;5.816;2023-02-16T11:24:31;101592.94;;;9.21;95.96
68994;BME280;56054;50.968;5.816;2023-02-16T11:27:52;101599.19;;;9.23;97.03
68994;BME280;56054;50.968;5.816;2023-02-16T11:34:51;101594.22;;;9.26;97.42
68994;BME280;56054;50.968;5.816;2023-02-16T11:37:58;101583.88;;;9.26;98.10
68994;BME280;56054;50.968;5.816;2023-02-16T11:41:06;101576.34;;;9.29;98.50
68994;BME280;56054;50.968;5.816;2023-02-16T11:47:36;101575.41;;;9.29;99.72
68994;BME280;56054;50.968;5.816;2023-02-16T11:51:12;101564.03;;;9.27;100.00
68994;BME280;56054;50.968;5.816;2023-02-16T11:54:19;101572.22;;;9.21;100.00
68994;BME280;56054;50.968;5.816;2023-02-16T11:57:33;101577.28;;;9.19;100.00
68994;BME280;56054;50.968;5.816;2023-02-16T12:00:51;101563.00;;;9.25;100.00
68994;BME280;56054;50.968;5.816;2023-02-16T12:08:11;101579.94;;;9.41;100.00
68994;BME280;56054;50.968;5.816;2023-02-16T12:11:44;101559.91;;;9.51;100.00
68994;BME280;56054;50.968;5.816;2023-02-16T12:15:40;101550.47;;;9.51;100.00
68994;BME280;56054;50.968;5.816;2023-02-16T12:22:45;101551.84;;;9.58;100.00
68994;BME280;56054;50.968;5.816;2023-02-16T12:32:58;101521.44;;;9.67;100.00
68994;BME280;56054;50.968;5.816;2023-02-16T12:46:05;101520.03;;;9.82;99.42
68994;BME280;56054;50.968;5.816;2023-02-16T12:49:23;101524.47;;;9.83;100.00
68994;BME280;56054;50.968;5.816;2023-02-16T12:52:37;101519.50;;;9.86;100.00
68994;BME280;56054;50.968;5.816;2023-02-16T12:55:51;101518.66;;;9.98;99.88
68994;BME280;56054;50.968;5.816;2023-02-16T12:59:16;101503.78;;;10.07;100.00
68994;BME280;56054;50.968;5.816;2023-02-16T13:02:39;101499.16;;;10.03;99.39
68994;BME280;56054;50.968;5.816;2023-02-16T13:05:52;101496.78;;;10.06;98.50
68994;BME280;56054;50.968;5.816;2023-02-16T13:12:55;101482.50;;;10.23;99.11
68994;BME280;56054;50.968;5.816;2023-02-16T13:16:34;101462.34;;;10.31;98.78
68994;BME280;56054;50.968;5.816;2023-02-16T13:19:53;101454.22;;;10.38;98.61
68994;BME280;56054;50.968;5.816;2023-02-16T13:37:52;101430.75;;;10.95;95.58
68994;BME280;56054;50.968;5.816;2023-02-16T13:41:43;101428.94;;;11.31;93.73
68994;BME280;56054;50.968;5.816;2023-02-16T13:44:55;101431.13;;;11.25;93.71
68994;BME280;56054;50.968;5.816;2023-02-16T13:48:12;101437.41;;;11.40;92.72
68994;BME280;56054;50.968;5.816;2023-02-16T13:51:23;101437.41;;;11.40;93.02
68994;BME280;56054;50.968;5.816;2023-02-16T13:54:35;101440.47;;;11.46;92.34
68994;BME280;56054;50.968;5.816;2023-02-16T13:58:03;101431.13;;;11.62;90.98
68994;BME280;56054;50.968;5.816;2023-02-16T14:04:58;101411.53;;;11.67;90.22
68994;BME280;56054;50.968;5.816;2023-02-16T14:08:28;101406.81;;;11.61;89.48
68994;BME280;56054;50.968;5.816;2023-02-16T14:15:21;101387.78;;;11.62;88.78
68994;BME280;56054;50.968;5.816;2023-02-16T14:22:09;101387.53;;;11.71;88.10
68994;BME280;56054;50.968;5.816;2023-02-16T14:31:57;101379.91;;;11.74;88.09
68994;BME280;56054;50.968;5.816;2023-02-16T14:38:32;101372.41;;;11.78;86.48
68994;BME280;56054;50.968;5.816;2023-02-16T14:41:40;101357.88;;;11.82;83.96
68994;BME280;56054;50.968;5.816;2023-02-16T14:49:03;101364.34;;;11.87;83.24
68994;BME280;56054;50.968;5.816;2023-02-16T14:59:49;101348.13;;;11.91;83.69
68994;BME280;56054;50.968;5.816;2023-02-16T15:03:21;101366.63;;;11.83;83.26
68994;BME280;56054;50.968;5.816;2023-02-16T15:06:37;101355.97;;;11.79;84.00
68994;BME280;56054;50.968;5.816;2023-02-16T15:09:45;101354.88;;;11.76;84.63
68994;BME280;56054;50.968;5.816;2023-02-16T15:13:09;101357.94;;;11.70;84.52
68994;BME280;56054;50.968;5.816;2023-02-16T15:16:16;101341.44;;;11.70;84.52
68994;BME280;56054;50.968;5.816;2023-02-16T15:19:27;101346.63;;;11.70;84.57
68994;BME280;56054;50.968;5.816;2023-02-16T15:22:37;101351.53;;;11.65;85.19
68994;BME280;56054;50.968;5.816;2023-02-16T15:25:59;101348.16;;;11.66;85.07
68994;BME280;56054;50.968;5.816;2023-02-16T15:32:22;101342.03;;;11.66;85.36
68994;BME280;56054;50.968;5.816;2023-02-16T15:35:37;101341.44;;;11.70;85.34
68994;BME280;56054;50.968;5.816;2023-02-16T15:42:26;101346.47;;;11.80;84.20
68994;BME280;56054;50.968;5.816;2023-02-16T15:45:35;101347.47;;;11.82;84.15
68994;BME280;56054;50.968;5.816;2023-02-16T15:48:42;101351.91;;;11.83;84.42
68994;BME280;56054;50.968;5.816;2023-02-16T15:51:49;101359.72;;;11.83;84.88
68994;BME280;56054;50.968;5.816;2023-02-16T15:54:56;101348.09;;;11.78;84.86
68994;BME280;56054;50.968;5.816;2023-02-16T15:58:06;101342.66;;;11.75;85.28
68994;BME280;56054;50.968;5.816;2023-02-16T16:01:21;101339.25;;;11.76;85.62
68994;BME280;56054;50.968;5.816;2023-02-16T16:04:29;101346.25;;;11.77;85.66
68994;BME280;56054;50.968;5.816;2023-02-16T16:07:48;101336.53;;;11.74;85.69
68994;BME280;56054;50.968;5.816;2023-02-16T16:10:56;101333.25;;;11.77;85.99
68994;BME280;56054;50.968;5.816;2023-02-16T16:14:03;101330.31;;;11.72;86.33
68994;BME280;56054;50.968;5.816;2023-02-16T16:17:22;101348.03;;;11.65;87.36
68994;BME280;56054;50.968;5.816;2023-02-16T16:20:34;101338.19;;;11.61;88.12
68994;BME280;56054;50.968;5.816;2023-02-16T16:23:56;101343.41;;;11.61;88.89
68994;BME280;56054;50.968;5.816;2023-02-16T16:27:09;101331.00;;;11.56;89.81
68994;BME280;56054;50.968;5.816;2023-02-16T16:33:26;101339.59;;;11.55;89.99
68994;BME280;56054;50.968;5.816;2023-02-16T16:36:44;101340.41;;;11.54;90.53
68994;BME280;56054;50.968;5.816;2023-02-16T16:40:23;101334.19;;;11.52;90.32
68994;BME280;56054;50.968;5.816;2023-02-16T16:43:34;101332.16;;;11.48;90.67
68994;BME280;56054;50.968;5.816;2023-02-16T16:46:43;101335.75;;;11.50;90.86
68994;BME280;56054;50.968;5.816;2023-02-16T16:53:00;101344.19;;;11.46;91.01
68994;BME280;56054;50.968;5.816;2023-02-16T16:56:12;101342.84;;;11.40;91.43
68994;BME280;56054;50.968;5.816;2023-02-16T16:59:21;101340.13;;;11.38;91.77
68994;BME280;56054;50.968;5.816;2023-02-16T17:02:31;101332.56;;;11.41;90.75
68994;BME280;56054;50.968;5.816;2023-02-16T17:06:17;101353.13;;;11.38;91.42
68994;BME280;56054;50.968;5.816;2023-02-16T17:09:56;101360.72;;;11.35;91.54
68994;BME280;56054;50.968;5.816;2023-02-16T17:31:58;101369.09;;;11.06;95.08
68994;BME280;56054;50.968;5.816;2023-02-16T17:35:05;101361.16;;;11.04;95.35
68994;BME280;56054;50.968;5.816;2023-02-16T17:38:18;101370.00;;;10.95;95.09
68994;BME280;56054;50.968;5.816;2023-02-16T17:41:27;101369.09;;;10.94;95.57
68994;BME280;56054;50.968;5.816;2023-02-16T17:44:34;101369.69;;;10.90;95.42
68994;BME280;56054;50.968;5.816;2023-02-16T17:47:43;101377.38;;;10.88;95.29
68994;BME280;56054;50.968;5.816;2023-02-16T17:50:50;101378.75;;;10.83;95.60
68994;BME280;56054;50.968;5.816;2023-02-16T17:53:57;101376.84;;;10.81;96.93
68994;BME280;56054;50.968;5.816;2023-02-16T17:57:04;101374.91;;;10.78;96.76
68994;BME280;56054;50.968;5.816;2023-02-16T18:00:16;101379.31;;;10.67;97.55
68994;BME280;56054;50.968;5.816;2023-02-16T18:03:23;101384.41;;;10.66;98.03
68994;BME280;56054;50.968;5.816;2023-02-16T18:06:30;101393.31;;;10.46;100.00
68994;BME280;56054;50.968;5.816;2023-02-16T18:09:37;101392.09;;;10.29;100.00
68994;BME280;56054;50.968;5.816;2023-02-16T18:12:44;101396.03;;;10.36;100.00
68994;BME280;56054;50.968;5.816;2023-02-16T18:15:51;101397.91;;;10.15;100.00
68994;BME280;56054;50.968;5.816;2023-02-16T18:19:29;101379.56;;;9.90;100.00
68994;BME280;56054;50.968;5.816;2023-02-16T18:22:36;101393.66;;;9.81;100.00
68994;BME280;56054;50.968;5.816;2023-02-16T18:25:43;101384.63;;;9.76;100.00
68994;BME280;56054;50.968;5.816;2023-02-16T18:28:52;101381.78;;;9.73;100.00
68994;BME280;56054;50.968;5.816;2023-02-16T18:32:05;101389.44;;;9.72;100.00
68994;BME280;56054;50.968;5.816;2023-02-16T18:35:13;101388.97;;;9.65;100.00
68994;BME280;56054;50.968;5.816;2023-02-16T18:38:27;101383.91;;;9.67;100.00
68994;BME280;56054;50.968;5.816;2023-02-16T18:41:35;101377.09;;;9.57;100.00
68994;BME280;56054;50.968;5.816;2023-02-16T18:44:42;101384.22;;;9.60;100.00
68994;BME280;56054;50.968;5.816;2023-02-16T18:47:49;101382.41;;;9.59;100.00
68994;BME280;56054;50.968;5.816;2023-02-16T18:50:56;101378.13;;;9.59;100.00
68994;BME280;56054;50.968;5.816;2023-02-16T18:54:03;101380.94;;;9.62;100.00
68994;BME280;56054;50.968;5.816;2023-02-16T18:57:11;101370.47;;;9.61;100.00
68994;BME280;56054;50.968;5.816;2023-02-16T19:00:18;101377.47;;;9.62;100.00
68994;BME280;56054;50.968;5.816;2023-02-16T19:03:30;101370.47;;;9.61;100.00
68994;BME280;56054;50.968;5.816;2023-02-16T19:06:42;101367.75;;;9.59;100.00
68994;BME280;56054;50.968;5.816;2023-02-16T19:09:52;101356.47;;;9.59;100.00
68994;BME280;56054;50.968;5.816;2023-02-16T19:12:59;101346.09;;;9.59;100.00
68994;BME280;56054;50.968;5.816;2023-02-16T19:16:06;101350.38;;;9.58;100.00
68994;BME280;56054;50.968;5.816;2023-02-16T19:19:13;101344.25;;;9.58;100.00
68994;BME280;56054;50.968;5.816;2023-02-16T19:22:21;101345.19;;;9.58;100.00
68994;BME280;56054;50.968;5.816;2023-02-16T19:25:37;101344.53;;;9.61;100.00
68994;BME280;56054;50.968;5.816;2023-02-16T19:28:44;101343.72;;;9.62;100.00
68994;BME280;56054;50.968;5.816;2023-02-16T19:31:58;101340.22;;;9.61;100.00
68994;BME280;56054;50.968;5.816;2023-02-16T19:35:12;101348.13;;;9.63;100.00
68994;BME280;56054;50.968;5.816;2023-02-16T19:38:21;101342.25;;;9.65;100.00
68994;BME280;56054;50.968;5.816;2023-02-16T19:41:31;101336.16;;;9.65;100.00
68994;BME280;56054;50.968;5.816;2023-02-16T19:44:39;101334.59;;;9.67;100.00
68994;BME280;56054;50.968;5.816;2023-02-16T19:47:48;101344.44;;;9.71;100.00
68994;BME280;56054;50.968;5.816;2023-02-16T19:50:56;101340.00;;;9.70;100.00
68994;BME280;56054;50.968;5.816;2023-02-16T19:54:03;101324.91;;;9.76;100.00
68994;BME280;56054;50.968;5.816;2023-02-16T19:57:10;101329.66;;;9.82;100.00
68994;BME280;56054;50.968;5.816;2023-02-16T20:00:17;101339.81;;;9.79;100.00
68994;BME280;56054;50.968;5.816;2023-02-16T20:03:24;101338.91;;;9.78;100.00
68994;BME280;56054;50.968;5.816;2023-02-16T20:06:35;101340.50;;;9.76;100.00
68994;BME280;56054;50.968;5.816;2023-02-16T20:09:46;101344.88;;;9.77;100.00
68994;BME280;56054;50.968;5.816;2023-02-16T20:12:59;101337.56;;;9.83;100.00
68994;BME280;56054;50.968;5.816;2023-02-16T20:16:21;101335.88;;;9.84;100.00
68994;BME280;56054;50.968;5.816;2023-02-16T20:19:28;101341.41;;;9.89;100.00
68994;BME280;56054;50.968;5.816;2023-02-16T20:22:35;101342.44;;;9.91;100.00
68994;BME280;56054;50.968;5.816;2023-02-16T20:25:42;101339.28;;;9.95;100.00
68994;BME280;56054;50.968;5.816;2023-02-16T20:28:50;101336.03;;;9.97;100.00
68994;BME280;56054;50.968;5.816;2023-02-16T20:31:57;101340.88;;;10.04;100.00
68994;BME280;56054;50.968;5.816;2023-02-16T20:35:07;101342.56;;;10.04;100.00
68994;BME280;56054;50.968;5.816;2023-02-16T20:38:16;101338.63;;;10.09;100.00
68994;BME280;56054;50.968;5.816;2023-02-16T20:41:23;101336.00;;;10.09;100.00
68994;BME280;56054;50.968;5.816;2023-02-16T20:44:30;101332.66;;;10.10;100.00
68994;BME280;56054;50.968;5.816;2023-02-16T20:47:42;101329.25;;;10.11;100.00
68994;BME280;56054;50.968;5.816;2023-02-16T20:50:57;101327.91;;;10.16;100.00
68994;BME280;56054;50.968;5.816;2023-02-16T20:54:04;101329.72;;;10.17;100.00
68994;BME280;56054;50.968;5.816;2023-02-16T20:57:11;101327.34;;;10.20;100.00
68994;BME280;56054;50.968;5.816;2023-02-16T21:00:21;101325.56;;;10.19;100.00
68994;BME280;56054;50.968;5.816;2023-02-16T21:03:28;101319.75;;;10.23;100.00
68994;BME280;56054;50.968;5.816;2023-02-16T21:06:36;101325.97;;;10.25;100.00
68994;BME280;56054;50.968;5.816;2023-02-16T21:09:42;101323.63;;;10.28;100.00
68994;BME280;56054;50.968;5.816;2023-02-16T21:12:51;101308.47;;;10.23;100.00
68994;BME280;56054;50.968;5.816;2023-02-16T21:15:58;101328.38;;;10.22;100.00
68994;BME280;56054;50.968;5.816;2023-02-16T21:19:06;101311.66;;;10.31;100.00
68994;BME280;56054;50.968;5.816;2023-02-16T21:22:17;101308.06;;;10.28;100.00
68994;BME280;56054;50.968;5.816;2023-02-16T21:25:26;101306.22;;;10.27;100.00
68994;BME280;56054;50.968;5.816;2023-02-16T21:28:32;101308.81;;;10.27;100.00
68994;BME280;56054;50.968;5.816;2023-02-16T21:31:39;101318.44;;;10.28;100.00
68994;BME280;56054;50.968;5.816;2023-02-16T21:34:46;101306.59;;;10.32;100.00
68994;BME280;56054;50.968;5.816;2023-02-16T21:38:02;101311.88;;;10.34;100.00
68994;BME280;56054;50.968;5.816;2023-02-16T21:41:13;101300.81;;;10.36;100.00
68994;BME280;56054;50.968;5.816;2023-02-16T21:44:26;101299.91;;;10.36;100.00
68994;BME280;56054;50.968;5.816;2023-02-16T21:47:43;101291.34;;;10.37;100.00
68994;BME280;56054;50.968;5.816;2023-02-16T21:50:52;101296.09;;;10.42;100.00
68994;BME280;56054;50.968;5.816;2023-02-16T21:53:59;101300.25;;;10.40;100.00
68994;BME280;56054;50.968;5.816;2023-02-16T21:57:12;101296.22;;;10.44;100.00
68994;BME280;56054;50.968;5.816;2023-02-16T22:00:19;101295.53;;;10.46;100.00
68994;BME280;56054;50.968;5.816;2023-02-16T22:03:27;101294.50;;;10.44;100.00
68994;BME280;56054;50.968;5.816;2023-02-16T22:06:41;101281.38;;;10.43;100.00
68994;BME280;56054;50.968;5.816;2023-02-16T22:09:48;101280.38;;;10.41;100.00
68994;BME280;56054;50.968;5.816;2023-02-16T22:12:56;101283.22;;;10.44;100.00
68994;BME280;56054;50.968;5.816;2023-02-16T22:16:17;101287.59;;;10.45;100.00
68994;BME280;56054;50.968;5.816;2023-02-16T22:19:27;101290.88;;;10.42;100.00
68994;BME280;56054;50.968;5.816;2023-02-16T22:22:36;101295.53;;;10.46;100.00
68994;BME280;56054;50.968;5.816;2023-02-16T22:26:22;101298.81;;;10.44;100.00
68994;BME280;56054;50.968;5.816;2023-02-16T22:29:29;101290.19;;;10.45;100.00
68994;BME280;56054;50.968;5.816;2023-02-16T22:32:42;101282.63;;;10.48;100.00
68994;BME280;56054;50.968;5.816;2023-02-16T22:35:51;101297.31;;;10.47;100.00
68994;BME280;56054;50.968;5.816;2023-02-16T22:39:07;101295.41;;;10.45;100.00
68994;BME280;56054;50.968;5.816;2023-02-16T22:42:17;101292.13;;;10.47;100.00
68994;BME280;56054;50.968;5.816;2023-02-16T22:45:26;101294.94;;;10.50;100.00
68994;BME280;56054;50.968;5.816;2023-02-16T22:48:34;101281.84;;;10.49;100.00
68994;BME280;56054;50.968;5.816;2023-02-16T22:52:07;101288.63;;;10.47;100.00
68994;BME280;56054;50.968;5.816;2023-02-16T22:55:16;101286.03;;;10.47;100.00
68994;BME280;56054;50.968;5.816;2023-02-16T22:58:23;101269.63;;;10.48;100.00
